Time;durP1;ratioP1;P1;durP2;ratioP2;P2;SDS_P1;SDS_P2;PMS_P1;PMS_P2;Temp;Humidity;BMP_temperature;BMP_pressure;BME280_temperature;BME280_humidity;BME280_pressure;Samples;Min_cycle;Max_cycle;Signal;HPM_P1;HPM_P2
2020/12/25 00:01:49;;;;;;;3.47;3.15;;;4.20;99.90;;;;;;5103546;28;20359;-57
2020/12/25 00:04:15;;;;;;;3.85;3.28;;;4.20;99.90;;;;;;5104542;28;20200;-58
2020/12/25 00:06:42;;;;;;;4.60;4.13;;;4.20;99.90;;;;;;5103912;28;20392;-58
2020/12/25 00:09:08;;;;;;;4.07;3.10;;;4.20;99.90;;;;;;5104105;28;20203;-59
2020/12/25 00:11:37;;;;;;;6.25;3.67;;;4.20;99.90;;;;;;5103933;28;20315;-59
2020/12/25 00:14:04;;;;;;;5.53;4.03;;;4.30;99.90;;;;;;5103848;28;20209;-60
2020/12/25 00:16:31;;;;;;;5.35;3.83;;;4.20;99.90;;;;;;5103694;28;20237;-59
2020/12/25 00:18:58;;;;;;;6.55;3.50;;;4.20;99.90;;;;;;5103689;28;20200;-60
2020/12/25 00:21:25;;;;;;;4.35;3.42;;;4.20;99.90;;;;;;5103660;28;20245;-58
2020/12/25 00:23:51;;;;;;;6.32;4.10;;;4.20;99.90;;;;;;5103643;28;20205;-60
2020/12/25 00:26:25;;;;;;;5.72;4.30;;;4.10;99.90;;;;;;5103346;28;20238;-58
2020/12/25 00:28:53;;;;;;;7.10;4.60;;;4.10;99.90;;;;;;5102370;28;20205;-59
2020/12/25 00:31:28;;;;;;;6.13;4.20;;;4.20;99.90;;;;;;5103273;28;20231;-59
2020/12/25 00:34:03;;;;;;;6.00;4.43;;;4.20;99.90;;;;;;5103207;28;20265;-59
2020/12/25 00:36:32;;;;;;;6.35;4.53;;;4.20;99.90;;;;;;5103170;28;20254;-59
2020/12/25 00:39:00;;;;;;;9.43;6.05;;;4.20;99.90;;;;;;5103498;28;20375;-60
2020/12/25 00:41:27;;;;;;;6.38;4.43;;;4.20;99.90;;;;;;5104622;28;20250;-59
2020/12/25 00:43:54;;;;;;;6.32;4.80;;;4.20;99.90;;;;;;5103055;28;20205;-59
2020/12/25 00:46:21;;;;;;;5.53;4.05;;;4.20;99.90;;;;;;5103555;28;20500;-61
2020/12/25 00:48:48;;;;;;;12.75;5.03;;;4.20;99.90;;;;;;5103023;28;20384;-60
2020/12/25 00:51:20;;;;;;;7.72;4.35;;;4.30;99.90;;;;;;5103167;28;20235;-60
2020/12/25 00:53:48;;;;;;;5.78;4.53;;;4.20;99.90;;;;;;5103063;28;20197;-58
2020/12/25 00:56:16;;;;;;;5.20;4.20;;;4.20;99.90;;;;;;5102889;28;20225;-59
2020/12/25 00:58:43;;;;;;;6.10;3.63;;;4.20;99.90;;;;;;5102850;28;20204;-61
2020/12/25 01:01:13;;;;;;;5.07;3.15;;;4.20;99.90;;;;;;5101842;28;20205;-59
2020/12/25 01:03:42;;;;;;;6.25;4.20;;;4.20;99.90;;;;;;5103015;28;20377;-59
2020/12/25 01:06:17;;;;;;;4.95;3.80;;;4.10;99.90;;;;;;5102833;28;20202;-60
2020/12/25 01:08:45;;;;;;;5.20;3.50;;;4.20;99.90;;;;;;5102576;28;20261;-59
2020/12/25 01:11:12;;;;;;;6.70;4.00;;;4.20;99.90;;;;;;5102860;28;20273;-60
2020/12/25 01:13:40;;;;;;;6.93;3.72;;;4.20;99.90;;;;;;5103933;28;20217;-60
2020/12/25 01:16:18;;;;;;;6.47;3.40;;;4.20;99.90;;;;;;5102809;28;20293;-59
2020/12/25 01:18:48;;;;;;;6.90;5.22;;;4.20;99.90;;;;;;5102533;28;20185;-59
2020/12/25 01:21:16;;;;;;;5.03;4.00;;;4.20;99.90;;;;;;5102755;28;20197;-59
2020/12/25 01:23:43;;;;;;;6.63;4.18;;;4.20;99.90;;;;;;5102598;28;20207;-59
2020/12/25 01:26:11;;;;;;;5.15;3.92;;;4.20;99.90;;;;;;5102607;28;20300;-59
2020/12/25 01:28:38;;;;;;;4.38;3.50;;;4.20;99.90;;;;;;5102961;28;20368;-59
2020/12/25 01:31:05;;;;;;;6.38;3.90;;;4.20;99.90;;;;;;5102872;28;20201;-59
2020/12/25 01:33:35;;;;;;;5.72;3.50;;;4.20;99.90;;;;;;5101413;28;20200;-59
2020/12/25 01:36:03;;;;;;;7.43;4.22;;;4.20;99.90;;;;;;5102613;28;20228;-59
2020/12/25 01:38:31;;;;;;;5.40;3.45;;;4.20;99.90;;;;;;5102639;28;20207;-61
2020/12/25 01:40:58;;;;;;;10.02;3.03;;;4.10;99.90;;;;;;5102761;28;20230;-60
2020/12/25 01:43:25;;;;;;;3.47;2.97;;;4.10;99.90;;;;;;5102900;28;20207;-60
2020/12/25 01:45:52;;;;;;;4.38;3.85;;;4.20;99.90;;;;;;5102529;28;20217;-59
2020/12/25 01:48:19;;;;;;;5.63;3.75;;;4.20;99.90;;;;;;5103795;28;20205;-59
2020/12/25 01:50:48;;;;;;;4.68;3.78;;;4.20;99.90;;;;;;5103120;28;20525;-60
2020/12/25 01:53:17;;;;;;;8.70;3.53;;;4.20;99.90;;;;;;5102483;28;20197;-60
2020/12/25 01:55:44;;;;;;;4.82;3.08;;;4.20;99.90;;;;;;5102938;28;20205;-60
2020/12/25 01:58:12;;;;;;;3.90;2.90;;;4.20;99.90;;;;;;5102759;28;20368;-59
2020/12/25 02:00:39;;;;;;;4.53;3.30;;;4.20;99.90;;;;;;5102975;28;20346;-60
2020/12/25 02:03:06;;;;;;;3.95;2.90;;;4.10;99.90;;;;;;5102538;28;20272;-59
2020/12/25 02:05:33;;;;;;;5.35;3.05;;;4.20;99.90;;;;;;5102642;28;20221;-60
2020/12/25 02:08:00;;;;;;;4.22;3.25;;;4.20;99.90;;;;;;5102159;28;20205;-59
2020/12/25 02:10:27;;;;;;;4.90;3.67;;;4.20;99.90;;;;;;5102568;28;20406;-59
2020/12/25 02:12:54;;;;;;;4.30;3.83;;;4.20;99.90;;;;;;5101855;28;20205;-60
2020/12/25 02:15:20;;;;;;;5.50;4.03;;;4.10;99.90;;;;;;5102585;28;20205;-58
2020/12/25 02:17:48;;;;;;;4.35;3.40;;;4.20;99.90;;;;;;5101682;28;20235;-59
2020/12/25 02:20:15;;;;;;;4.25;3.10;;;4.20;99.90;;;;;;5102319;28;20201;-60
2020/12/25 02:22:42;;;;;;;3.47;3.17;;;4.20;99.90;;;;;;5102240;28;20248;-59
2020/12/25 02:25:10;;;;;;;5.68;3.60;;;4.20;99.90;;;;;;5106052;28;20265;-60
2020/12/25 02:27:37;;;;;;;3.35;3.05;;;4.20;99.90;;;;;;5106134;28;20237;-60
2020/12/25 02:30:05;;;;;;;4.22;2.75;;;4.10;99.90;;;;;;5105626;28;20311;-59
2020/12/25 02:32:32;;;;;;;4.03;2.97;;;4.10;99.90;;;;;;5105737;28;20273;-59
2020/12/25 02:35:11;;;;;;;3.40;3.10;;;4.00;99.90;;;;;;5106234;28;20185;-59
2020/12/25 02:37:37;;;;;;;4.05;3.58;;;4.10;99.90;;;;;;5105423;28;20227;-59
2020/12/25 02:40:04;;;;;;;5.13;4.07;;;4.10;99.90;;;;;;5105225;28;20209;-59
2020/12/25 02:42:31;;;;;;;7.82;4.90;;;4.10;99.90;;;;;;5105697;28;20269;-59
2020/12/25 02:44:58;;;;;;;7.13;3.60;;;4.10;99.90;;;;;;5105210;28;20210;-58
2020/12/25 02:47:25;;;;;;;7.80;4.00;;;4.10;99.90;;;;;;5105459;28;20212;-58
2020/12/25 02:49:57;;;;;;;7.32;4.38;;;4.10;99.90;;;;;;5105169;28;20537;-58
2020/12/25 02:52:24;;;;;;;5.15;3.88;;;4.00;99.90;;;;;;5105504;28;20265;-57
2020/12/25 02:54:50;;;;;;;5.78;4.50;;;4.10;99.90;;;;;;5105298;28;20491;-58
2020/12/25 02:57:17;;;;;;;6.78;4.80;;;4.10;99.90;;;;;;5105162;28;20225;-57
2020/12/25 02:59:44;;;;;;;5.00;3.22;;;4.00;99.90;;;;;;5106408;28;20237;-58
2020/12/25 03:02:11;;;;;;;6.63;4.13;;;4.10;99.90;;;;;;5105462;28;20204;-56
2020/12/25 03:04:38;;;;;;;9.77;5.28;;;4.00;99.90;;;;;;5105626;28;20208;-58
2020/12/25 03:07:04;;;;;;;5.07;4.43;;;4.00;99.90;;;;;;5105118;28;20503;-56
2020/12/25 03:09:31;;;;;;;5.63;4.35;;;4.10;99.90;;;;;;5105203;28;20288;-57
2020/12/25 03:11:57;;;;;;;10.05;4.55;;;4.10;99.90;;;;;;5105175;28;20260;-57
2020/12/25 03:14:24;;;;;;;6.35;4.68;;;4.10;99.90;;;;;;5104799;28;20209;-57
2020/12/25 03:16:50;;;;;;;5.22;4.05;;;4.10;99.90;;;;;;5104665;28;20235;-58
2020/12/25 03:19:17;;;;;;;4.00;3.60;;;4.10;99.90;;;;;;5104886;28;20201;-60
2020/12/25 03:21:44;;;;;;;7.00;4.20;;;4.00;99.90;;;;;;5105122;28;20201;-57
2020/12/25 03:24:11;;;;;;;6.70;4.43;;;4.00;99.90;;;;;;5104566;28;20449;-57
2020/12/25 03:26:37;;;;;;;5.60;3.00;;;4.00;99.90;;;;;;5104795;28;20247;-57
2020/12/25 03:29:04;;;;;;;5.15;3.47;;;4.00;99.90;;;;;;5105389;28;20222;-58
2020/12/25 03:31:31;;;;;;;4.57;3.38;;;3.90;99.90;;;;;;5105171;28;20227;-59
2020/12/25 03:33:57;;;;;;;3.35;3.03;;;3.90;99.90;;;;;;5104103;28;20394;-58
2020/12/25 03:36:24;;;;;;;4.22;3.53;;;3.90;99.90;;;;;;5103575;28;20228;-58
2020/12/25 03:38:50;;;;;;;6.38;2.80;;;4.00;99.90;;;;;;5104774;28;20395;-59
2020/12/25 03:41:17;;;;;;;6.35;3.35;;;3.90;99.90;;;;;;5104691;28;20269;-59
2020/12/25 03:43:44;;;;;;;5.13;3.33;;;3.90;99.90;;;;;;5104481;28;20209;-58
2020/12/25 03:46:11;;;;;;;5.00;4.03;;;3.90;99.90;;;;;;5104142;28;20201;-58
2020/12/25 03:48:39;;;;;;;9.77;4.78;;;3.90;99.90;;;;;;5104637;28;20364;-58
2020/12/25 03:51:06;;;;;;;7.65;4.00;;;3.90;99.90;;;;;;5104755;28;20235;-58
2020/12/25 03:53:32;;;;;;;4.72;3.67;;;3.90;99.90;;;;;;5104561;28;20276;-59
2020/12/25 03:55:59;;;;;;;4.05;3.00;;;3.80;99.90;;;;;;5104138;28;20210;-59
2020/12/25 03:58:25;;;;;;;3.75;3.45;;;3.80;99.90;;;;;;5104172;28;20210;-58
2020/12/25 04:00:52;;;;;;;3.42;3.13;;;3.80;99.90;;;;;;5104161;28;20206;-59
2020/12/25 04:03:19;;;;;;;3.47;2.90;;;3.80;99.90;;;;;;5104125;28;20452;-59
2020/12/25 04:05:45;;;;;;;3.75;3.15;;;3.90;99.90;;;;;;5104214;28;20390;-59
2020/12/25 04:08:12;;;;;;;2.50;2.30;;;3.80;99.90;;;;;;5103752;28;20210;-59
2020/12/25 04:10:38;;;;;;;2.30;2.20;;;3.80;99.90;;;;;;5104271;28;20198;-59
2020/12/25 04:13:05;;;;;;;3.47;2.38;;;3.70;99.90;;;;;;5103645;28;20208;-58
2020/12/25 04:15:31;;;;;;;5.40;4.05;;;3.80;99.90;;;;;;5104155;28;20338;-59
2020/12/25 04:17:58;;;;;;;5.18;2.90;;;3.80;99.90;;;;;;5103555;28;20228;-59
2020/12/25 04:20:25;;;;;;;3.50;2.95;;;3.80;99.90;;;;;;5102570;28;20201;-59
2020/12/25 04:22:51;;;;;;;3.38;2.70;;;3.80;99.90;;;;;;5103631;28;20219;-59
2020/12/25 04:25:18;;;;;;;2.63;2.08;;;3.80;99.90;;;;;;5103573;28;20201;-59
2020/12/25 04:27:44;;;;;;;2.30;2.10;;;3.70;99.90;;;;;;5103497;28;20232;-59
2020/12/25 04:30:11;;;;;;;2.55;2.35;;;3.70;99.90;;;;;;5103336;28;20406;-59
2020/12/25 04:32:38;;;;;;;4.20;2.83;;;3.70;99.90;;;;;;5103732;28;20485;-59
2020/12/25 04:35:04;;;;;;;5.63;3.55;;;3.70;99.90;;;;;;5103204;28;20209;-59
2020/12/25 04:37:32;;;;;;;4.32;2.83;;;3.70;99.90;;;;;;5103652;28;20247;-58
2020/12/25 04:39:59;;;;;;;3.20;2.90;;;2.90;99.90;;;;;;5103521;28;20287;-59
2020/12/25 04:42:26;;;;;;;4.25;3.00;;;3.60;99.90;;;;;;5103494;28;20204;-58
2020/12/25 04:44:53;;;;;;;3.58;2.63;;;3.60;99.90;;;;;;5102884;28;20214;-59
2020/12/25 04:47:20;;;;;;;2.35;2.15;;;3.60;99.90;;;;;;5103069;28;20209;-58
2020/12/25 04:49:48;;;;;;;2.40;2.22;;;3.50;99.90;;;;;;5102371;28;20206;-59
2020/12/25 04:52:14;;;;;;;1.88;1.65;;;3.60;99.90;;;;;;5103318;28;20493;-59
2020/12/25 04:54:41;;;;;;;2.67;2.25;;;3.60;99.90;;;;;;5103196;28;20202;-59
2020/12/25 04:57:08;;;;;;;3.25;2.90;;;3.60;99.90;;;;;;5103031;28;20228;-58
2020/12/25 04:59:35;;;;;;;2.15;1.95;;;3.60;99.90;;;;;;5103586;28;20225;-58
2020/12/25 05:02:04;;;;;;;4.22;3.25;;;3.60;99.90;;;;;;5102660;28;20206;-59
2020/12/25 05:04:30;;;;;;;5.65;3.03;;;3.60;99.90;;;;;;5103051;28;20211;-59
2020/12/25 05:07:01;;;;;;;2.75;2.55;;;3.60;99.90;;;;;;5102754;28;20215;-60
2020/12/25 05:09:29;;;;;;;2.72;2.40;;;3.50;99.90;;;;;;5102895;28;20211;-59
2020/12/25 05:11:57;;;;;;;5.15;2.55;;;3.60;99.90;;;;;;5102625;28;20251;-58
2020/12/25 05:14:34;;;;;;;6.50;3.08;;;3.50;99.90;;;;;;5103253;28;20211;-58
2020/12/25 05:17:01;;;;;;;2.65;2.42;;;3.60;99.90;;;;;;5101529;28;20229;-58
2020/12/25 05:19:29;;;;;;;4.72;3.03;;;3.60;99.90;;;;;;5103284;28;20253;-59
2020/12/25 05:21:57;;;;;;;7.35;2.10;;;3.60;99.90;;;;;;5102603;28;20202;-59
2020/12/25 05:24:24;;;;;;;4.22;2.67;;;3.60;99.90;;;;;;5102767;28;20207;-58
2020/12/25 05:26:57;;;;;;;6.65;2.72;;;3.60;99.90;;;;;;5102842;28;20229;-59
2020/12/25 05:29:25;;;;;;;3.30;2.63;;;3.60;99.90;;;;;;5102796;28;20211;-58
2020/12/25 05:31:53;;;;;;;2.72;2.35;;;3.60;99.90;;;;;;5102778;28;20203;-59
2020/12/25 05:34:21;;;;;;;2.88;2.67;;;3.70;99.90;;;;;;5102782;28;20208;-58
2020/12/25 05:37:05;;;;;;;4.30;2.20;;;3.60;99.90;;;;;;5102229;28;20228;-59
2020/12/25 05:39:35;;;;;;;5.53;2.75;;;3.60;99.90;;;;;;5102696;28;20206;-59
2020/12/25 05:42:07;;;;;;;3.42;3.10;;;3.70;99.90;;;;;;5102362;28;20206;-59
2020/12/25 05:44:44;;;;;;;5.93;4.05;;;3.70;99.90;;;;;;5102633;28;20205;-58
2020/12/25 05:47:13;;;;;;;2.85;2.40;;;3.70;99.90;;;;;;5102127;28;20204;-59
2020/12/25 05:49:40;;;;;;;2.25;2.05;;;3.70;99.90;;;;;;5102639;28;20200;-59
2020/12/25 05:52:07;;;;;;;2.40;2.20;;;3.60;99.90;;;;;;5102645;28;20206;-59
2020/12/25 05:54:34;;;;;;;4.43;3.35;;;3.60;99.90;;;;;;5102555;28;20310;-58
2020/12/25 05:57:05;;;;;;;4.32;3.83;;;3.60;99.90;;;;;;5102708;28;20223;-59
2020/12/25 05:59:32;;;;;;;4.95;3.80;;;3.60;99.90;;;;;;5105714;28;20199;-58
2020/12/25 06:02:04;;;;;;;6.00;3.85;;;3.60;99.90;;;;;;5106305;28;20203;-59
2020/12/25 06:04:33;;;;;;;4.90;3.97;;;3.70;99.90;;;;;;5106652;28;20199;-58
2020/12/25 06:07:00;;;;;;;6.28;4.00;;;3.60;99.90;;;;;;5106313;28;20261;-59
2020/12/25 06:09:32;;;;;;;3.65;3.35;;;3.50;99.90;;;;;;5106215;28;20245;-59
2020/12/25 06:12:00;;;;;;;5.93;3.92;;;3.60;99.90;;;;;;5105962;28;20334;-58
2020/12/25 06:14:26;;;;;;;3.63;3.15;;;3.60;99.90;;;;;;5106374;28;20214;-58
2020/12/25 06:17:06;;;;;;;4.18;3.72;;;3.60;99.90;;;;;;5105576;28;20223;-59
2020/12/25 06:19:33;;;;;;;3.30;2.60;;;3.60;99.90;;;;;;5106391;28;20184;-58
2020/12/25 06:22:04;;;;;;;2.83;2.45;;;3.60;99.90;;;;;;5105810;28;20243;-59
2020/12/25 06:24:34;;;;;;;5.03;3.72;;;3.60;99.90;;;;;;5106931;28;20209;-59
2020/12/25 06:27:01;;;;;;;6.00;4.30;;;3.60;99.90;;;;;;5105677;28;20242;-59
2020/12/25 06:29:28;;;;;;;3.70;3.22;;;3.60;99.90;;;;;;5106151;28;20211;-58
2020/12/25 06:31:57;;;;;;;3.17;2.75;;;3.70;99.90;;;;;;5105472;28;20198;-59
2020/12/25 06:34:47;;;;;;;2.85;2.65;;;3.60;99.90;;;;;;5105971;28;20215;-59
2020/12/25 06:37:14;;;;;;;4.32;3.30;;;3.60;99.90;;;;;;5105305;28;20238;-58
2020/12/25 06:39:51;;;;;;;3.47;3.00;;;3.60;99.90;;;;;;5105672;28;20200;-58
2020/12/25 06:42:36;;;;;;;10.02;4.55;;;3.60;99.90;;;;;;5105709;28;20206;-59
2020/12/25 06:45:12;;;;;;;5.57;4.38;;;3.60;99.90;;;;;;5105347;28;20270;-59
2020/12/25 06:47:39;;;;;;;4.80;4.38;;;3.60;99.90;;;;;;5105615;28;20197;-59
2020/12/25 06:50:16;;;;;;;4.63;3.67;;;3.70;99.90;;;;;;5105581;28;20267;-58
2020/12/25 06:52:56;;;;;;;6.82;4.78;;;3.60;99.90;;;;;;5105791;28;20184;-57
2020/12/25 06:55:24;;;;;;;3.28;3.00;;;3.60;99.90;;;;;;5105656;28;20204;-58
2020/12/25 06:57:54;;;;;;;6.70;4.50;;;3.60;99.90;;;;;;5105217;28;20223;-57
2020/12/25 07:00:22;;;;;;;6.43;4.10;;;3.70;99.90;;;;;;5105365;28;20492;-57
2020/12/25 07:02:49;;;;;;;6.40;5.00;;;3.60;99.90;;;;;;5105193;28;20210;-56
2020/12/25 07:05:15;;;;;;;5.43;4.03;;;3.60;99.90;;;;;;5105257;28;20418;-57
2020/12/25 07:07:42;;;;;;;7.28;4.70;;;3.60;99.90;;;;;;5105037;28;20203;-57
2020/12/25 07:10:09;;;;;;;8.75;5.40;;;3.60;99.90;;;;;;5104724;28;20217;-58
2020/12/25 07:12:36;;;;;;;5.25;3.47;;;3.60;99.90;;;;;;5104976;28;20503;-57
2020/12/25 07:15:05;;;;;;;7.00;4.43;;;3.60;99.90;;;;;;5105062;28;20420;-58
2020/12/25 07:17:31;;;;;;;5.15;4.53;;;3.60;99.90;;;;;;5104960;28;20231;-58
2020/12/25 07:19:58;;;;;;;5.13;4.10;;;3.70;99.90;;;;;;5104734;28;20215;-57
2020/12/25 07:22:25;;;;;;;5.28;4.15;;;3.70;99.90;;;;;;5105107;28;20199;-59
2020/12/25 07:24:52;;;;;;;6.38;5.10;;;3.60;99.90;;;;;;5104963;28;20428;-59
2020/12/25 07:27:18;;;;;;;6.22;4.65;;;3.60;99.90;;;;;;5104637;28;20430;-58
2020/12/25 07:29:45;;;;;;;4.85;3.75;;;3.60;99.90;;;;;;5104499;28;20202;-58
2020/12/25 07:32:13;;;;;;;3.95;3.58;;;3.50;99.90;;;;;;5104402;28;20207;-59
2020/12/25 07:34:39;;;;;;;4.82;4.05;;;3.60;99.90;;;;;;5105078;28;20201;-59
2020/12/25 07:37:07;;;;;;;5.22;3.70;;;3.60;99.90;;;;;;5104302;28;20239;-58
2020/12/25 07:39:33;;;;;;;7.13;4.70;;;3.60;99.90;;;;;;5104474;28;20205;-59
2020/12/25 07:42:00;;;;;;;4.55;3.47;;;3.60;99.90;;;;;;5104384;28;20204;-59
2020/12/25 07:44:26;;;;;;;4.10;3.70;;;3.60;99.90;;;;;;5104683;28;20204;-59
2020/12/25 07:46:53;;;;;;;5.15;3.80;;;3.60;99.90;;;;;;5104297;28;20249;-58
2020/12/25 07:49:20;;;;;;;3.95;3.55;;;3.60;99.90;;;;;;5104367;28;20200;-59
2020/12/25 07:51:50;;;;;;;3.75;3.10;;;3.70;99.90;;;;;;5104192;28;20198;-59
2020/12/25 07:54:17;;;;;;;4.50;3.60;;;3.50;99.90;;;;;;5104542;28;20232;-59
2020/12/25 07:56:44;;;;;;;3.55;3.05;;;3.50;99.90;;;;;;5104320;28;20231;-59
2020/12/25 07:59:11;;;;;;;5.05;2.90;;;3.50;99.90;;;;;;5103807;28;20515;-59
2020/12/25 08:01:38;;;;;;;9.13;2.20;;;3.60;99.90;;;;;;5104362;28;20206;-59
2020/12/25 08:04:05;;;;;;;2.78;2.20;;;3.50;99.90;;;;;;5103705;28;20203;-58
2020/12/25 08:06:33;;;;;;;1.92;1.60;;;3.50;99.90;;;;;;5103864;28;20206;-58
2020/12/25 08:09:06;;;;;;;2.17;1.98;;;3.60;99.90;;;;;;5103951;28;20213;-59
2020/12/25 08:11:33;;;;;;;4.75;2.08;;;3.50;99.90;;;;;;5103527;28;20200;-58
2020/12/25 08:14:05;;;;;;;7.63;2.35;;;3.50;99.90;;;;;;5103356;28;20204;-59
2020/12/25 08:16:32;;;;;;;1.20;1.10;;;3.60;99.90;;;;;;5103788;28;20271;-59
2020/12/25 08:18:59;;;;;;;1.00;0.90;;;3.50;99.90;;;;;;5103703;28;20198;-59
2020/12/25 08:21:37;;;;;;;2.60;1.75;;;3.60;99.90;;;;;;5103151;28;20225;-58
2020/12/25 08:24:09;;;;;;;2.35;1.17;;;3.50;99.90;;;;;;5103080;28;20202;-59
2020/12/25 08:26:39;;;;;;;3.00;1.77;;;3.60;99.90;;;;;;5103787;28;20295;-59
2020/12/25 08:29:07;;;;;;;2.28;1.48;;;3.70;99.90;;;;;;5103538;28;20412;-58
2020/12/25 08:31:38;;;;;;;0.93;0.93;;;3.70;99.90;;;;;;5103426;28;20360;-58
2020/12/25 08:34:06;;;;;;;0.70;0.70;;;3.80;99.90;;;;;;5103190;28;20200;-60
2020/12/25 08:36:33;;;;;;;3.03;1.25;;;3.70;99.90;;;;;;5104462;28;20265;-58
2020/12/25 08:39:07;;;;;;;1.42;1.10;;;3.80;99.90;;;;;;5103360;28;20242;-58
2020/12/25 08:41:33;;;;;;;1.88;1.42;;;3.80;99.90;;;;;;5103734;28;20206;-58
2020/12/25 08:44:10;;;;;;;1.23;1.00;;;3.90;99.90;;;;;;5103308;28;20437;-58
2020/12/25 08:46:37;;;;;;;4.45;1.92;;;3.90;99.90;;;;;;5103243;28;20231;-58
2020/12/25 08:49:04;;;;;;;2.60;1.90;;;3.90;99.90;;;;;;5102653;28;20385;-59
2020/12/25 08:51:36;;;;;;;2.85;2.35;;;4.00;99.90;;;;;;5103393;28;20204;-59
2020/12/25 08:54:02;;;;;;;3.25;2.35;;;4.10;99.90;;;;;;5102980;28;20232;-59
2020/12/25 08:56:29;;;;;;;3.78;2.08;;;4.00;99.90;;;;;;5103308;28;20200;-59
2020/12/25 08:59:07;;;;;;;3.30;2.47;;;4.20;99.90;;;;;;5101927;28;20200;-59
2020/12/25 09:01:36;;;;;;;3.50;2.47;;;3.90;99.90;;;;;;5103174;28;20201;-59
2020/12/25 09:04:03;;;;;;;11.80;4.30;;;3.90;99.90;;;;;;5103126;28;20204;-59
2020/12/25 09:06:30;;;;;;;3.50;2.95;;;3.90;99.90;;;;;;5102872;28;20199;-59
2020/12/25 09:08:57;;;;;;;5.95;3.67;;;4.00;99.90;;;;;;5102993;28;20263;-60
2020/12/25 09:11:25;;;;;;;3.08;2.45;;;4.00;99.90;;;;;;5103128;28;20418;-59
2020/12/25 09:13:52;;;;;;;5.65;5.13;;;4.00;99.90;;;;;;5103389;28;20253;-58
2020/12/25 09:16:19;;;;;;;7.72;4.10;;;4.20;99.90;;;;;;5102713;28;20267;-60
2020/12/25 09:18:46;;;;;;;5.25;4.25;;;4.10;99.90;;;;;;5102791;28;20232;-60
2020/12/25 09:21:15;;;;;;;7.70;4.30;;;4.20;99.90;;;;;;5102496;28;20201;-60
2020/12/25 09:23:41;;;;;;;4.80;4.40;;;4.30;99.90;;;;;;5102915;28;20204;-59
2020/12/25 09:26:10;;;;;;;4.30;3.55;;;4.20;99.90;;;;;;5102451;28;20244;-60
2020/12/25 09:28:37;;;;;;;4.53;4.13;;;4.30;99.90;;;;;;5102655;28;20187;-61
2020/12/25 09:31:09;;;;;;;4.13;3.42;;;4.30;99.90;;;;;;5102406;28;20206;-61
2020/12/25 09:33:36;;;;;;;8.80;4.68;;;4.40;99.90;;;;;;5106379;28;20208;-60
2020/12/25 09:36:05;;;;;;;5.50;4.88;;;4.50;99.90;;;;;;5106627;28;20429;-61
2020/12/25 09:38:32;;;;;;;4.32;3.40;;;4.50;99.90;;;;;;5106577;28;20217;-61
2020/12/25 09:41:00;;;;;;;5.03;3.83;;;4.60;99.90;;;;;;5107031;28;20243;-61
2020/12/25 09:43:29;;;;;;;8.57;3.83;;;4.50;99.90;;;;;;5105435;28;20224;-61
2020/12/25 09:45:58;;;;;;;4.28;3.45;;;4.60;99.90;;;;;;5106629;28;20243;-61
2020/12/25 09:48:25;;;;;;;10.10;5.05;;;4.60;99.90;;;;;;5106492;28;20205;-61
2020/12/25 09:50:52;;;;;;;5.90;4.55;;;4.40;99.90;;;;;;5106397;28;20208;-63
2020/12/25 09:53:18;;;;;;;5.97;5.20;;;4.40;99.90;;;;;;5106152;28;20400;-60
2020/12/25 09:55:48;;;;;;;4.55;4.03;;;4.20;99.90;;;;;;5106364;28;20266;-61
2020/12/25 09:58:14;;;;;;;4.13;3.72;;;4.20;99.90;;;;;;5106424;28;20402;-60
2020/12/25 10:00:41;;;;;;;5.40;4.43;;;4.10;99.90;;;;;;5106519;28;20267;-61
2020/12/25 10:03:07;;;;;;;3.50;3.20;;;4.10;99.90;;;;;;5106511;28;20287;-60
2020/12/25 10:05:34;;;;;;;3.92;2.85;;;4.10;99.90;;;;;;5107793;28;20200;-61
2020/12/25 10:08:00;;;;;;;5.70;4.90;;;4.00;99.90;;;;;;5105850;28;20210;-61
2020/12/25 10:10:27;;;;;;;6.82;3.90;;;3.80;99.90;;;;;;5106273;28;20211;-61
2020/12/25 10:12:54;;;;;;;4.68;3.85;;;3.90;99.90;;;;;;5106397;28;20204;-61
2020/12/25 10:15:22;;;;;;;3.38;2.72;;;3.90;99.90;;;;;;5106273;28;20200;-60
2020/12/25 10:17:49;;;;;;;4.25;3.30;;;3.80;99.90;;;;;;5106185;28;20286;-61
2020/12/25 10:20:16;;;;;;;5.65;3.42;;;3.90;99.90;;;;;;5105903;28;20208;-62
2020/12/25 10:22:42;;;;;;;4.25;3.45;;;3.70;99.90;;;;;;5105581;28;20210;-61
2020/12/25 10:25:09;;;;;;;3.72;3.35;;;3.70;99.90;;;;;;5106376;28;20207;-61
2020/12/25 10:27:41;;;;;;;3.30;3.00;;;3.70;99.90;;;;;;5106148;28;20548;-61
2020/12/25 10:30:09;;;;;;;8.18;5.28;;;3.80;99.90;;;;;;5105486;28;20231;-60
2020/12/25 10:32:39;;;;;;;4.72;3.90;;;3.70;99.90;;;;;;5105741;28;20234;-61
2020/12/25 10:35:07;;;;;;;3.05;2.67;;;3.80;99.90;;;;;;5105997;28;20271;-61
2020/12/25 10:37:35;;;;;;;5.60;3.40;;;3.80;99.90;;;;;;5105771;28;20236;-61
2020/12/25 10:40:03;;;;;;;4.20;3.67;;;3.70;99.90;;;;;;5105924;28;20238;-61
2020/12/25 10:42:30;;;;;;;5.80;2.67;;;3.80;99.90;;;;;;5105961;28;20211;-61
2020/12/25 10:44:56;;;;;;;5.22;4.63;;;3.90;99.90;;;;;;5105466;28;20246;-62
2020/12/25 10:47:23;;;;;;;4.20;3.47;;;3.90;99.90;;;;;;5105407;28;20219;-62
2020/12/25 10:49:49;;;;;;;4.65;3.90;;;4.00;99.90;;;;;;5105865;28;20202;-63
2020/12/25 10:52:16;;;;;;;5.07;4.55;;;4.00;99.90;;;;;;5105314;28;20503;-62
2020/12/25 10:54:42;;;;;;;4.18;3.35;;;3.90;99.90;;;;;;5104613;28;20200;-61
2020/12/25 10:57:09;;;;;;;7.00;4.18;;;4.00;99.90;;;;;;5105480;28;20557;-61
2020/12/25 10:59:35;;;;;;;4.82;3.88;;;3.90;99.90;;;;;;5105551;28;20200;-61
2020/12/25 11:02:02;;;;;;;7.60;3.90;;;3.90;99.90;;;;;;5105211;28;20275;-62
2020/12/25 11:04:29;;;;;;;8.18;4.38;;;3.90;99.90;;;;;;5105260;28;20271;-62
2020/12/25 11:06:55;;;;;;;4.10;3.42;;;3.90;99.90;;;;;;5105135;28;20210;-63
2020/12/25 11:09:22;;;;;;;4.30;3.25;;;4.10;99.90;;;;;;5105114;28;20227;-63
2020/12/25 11:11:48;;;;;;;4.15;3.75;;;4.10;99.90;;;;;;5105519;28;20228;-62
2020/12/25 11:14:15;;;;;;;5.18;4.65;;;4.10;99.90;;;;;;5105249;28;20204;-63
2020/12/25 11:16:42;;;;;;;6.22;2.40;;;4.20;99.90;;;;;;5105468;28;20271;-62
2020/12/25 11:19:09;;;;;;;4.05;3.75;;;4.10;99.90;;;;;;5104865;28;20208;-61
2020/12/25 11:21:40;;;;;;;4.05;3.70;;;4.10;99.90;;;;;;5104794;28;20398;-62
2020/12/25 11:24:07;;;;;;;7.15;2.70;;;4.10;99.90;;;;;;5104505;28;20208;-63
2020/12/25 11:26:35;;;;;;;3.20;2.95;;;4.20;99.90;;;;;;5104470;28;20234;-63
2020/12/25 11:29:06;;;;;;;3.00;2.80;;;4.10;99.90;;;;;;5103391;28;20205;-63
2020/12/25 11:31:36;;;;;;;5.35;3.95;;;4.20;99.90;;;;;;5103850;28;20207;-62
2020/12/25 11:34:04;;;;;;;3.53;2.85;;;4.10;99.90;;;;;;5104483;28;20202;-62
2020/12/25 11:36:34;;;;;;;4.95;3.75;;;4.00;99.90;;;;;;5104275;28;20264;-62
2020/12/25 11:39:02;;;;;;;3.70;3.40;;;4.00;99.90;;;;;;5104517;28;20584;-63
2020/12/25 11:41:29;;;;;;;5.15;3.25;;;4.00;99.90;;;;;;5104451;28;20205;-63
2020/12/25 11:43:58;;;;;;;3.50;3.30;;;4.00;99.90;;;;;;5104565;28;20465;-62
2020/12/25 11:46:24;;;;;;;5.63;2.95;;;4.00;99.90;;;;;;5102937;28;20209;-62
2020/12/25 11:48:52;;;;;;;3.67;3.38;;;4.00;99.90;;;;;;5104209;28;20202;-61
2020/12/25 11:51:22;;;;;;;4.32;2.63;;;4.00;99.90;;;;;;5103890;28;20209;-61
2020/12/25 11:53:49;;;;;;;4.63;4.32;;;3.90;99.90;;;;;;5104115;28;20202;-61
2020/12/25 11:56:21;;;;;;;12.10;2.90;;;3.90;99.90;;;;;;5102946;28;20209;-61
2020/12/25 11:58:48;;;;;;;4.35;2.75;;;3.90;99.90;;;;;;5104065;28;20225;-60
2020/12/25 12:01:15;;;;;;;5.22;3.83;;;3.90;99.90;;;;;;5103864;28;20200;-62
2020/12/25 12:03:42;;;;;;;3.28;2.97;;;4.10;99.90;;;;;;5105798;28;20201;-61
2020/12/25 12:06:09;;;;;;;3.38;3.08;;;4.10;99.90;;;;;;5104108;28;20253;-61
2020/12/25 12:08:39;;;;;;;4.63;3.92;;;4.20;99.90;;;;;;5104036;28;20203;-61
2020/12/25 12:11:24;;;;;;;6.32;3.00;;;4.10;99.90;;;;;;5103655;28;20189;-61
2020/12/25 12:13:50;;;;;;;7.03;4.05;;;4.20;99.90;;;;;;5104075;28;20545;-62
2020/12/25 12:16:20;;;;;;;4.70;2.90;;;4.20;99.90;;;;;;5103268;28;20201;-62
2020/12/25 12:18:49;;;;;;;4.45;3.42;;;4.10;99.90;;;;;;5102607;28;20292;-62
2020/12/25 12:21:16;;;;;;;1.67;1.50;;;4.10;99.90;;;;;;5103457;28;20482;-62
2020/12/25 12:23:42;;;;;;;8.63;1.33;;;3.70;99.90;;;;;;5103721;28;20448;-61
2020/12/25 12:26:10;;;;;;;2.05;0.82;;;3.50;99.90;;;;;;5103229;28;20236;-61
2020/12/25 12:28:37;;;;;;;1.20;0.63;;;3.30;99.90;;;;;;5104177;28;20351;-60
2020/12/25 12:31:04;;;;;;;0.50;0.47;;;3.40;99.90;;;;;;5103477;28;20200;-61
2020/12/25 12:33:31;;;;;;;1.08;0.80;;;3.50;99.90;;;;;;5102467;28;20227;-62
2020/12/25 12:35:57;;;;;;;1.63;1.38;;;3.50;99.90;;;;;;5103577;28;20199;-61
2020/12/25 12:38:24;;;;;;;1.30;1.17;;;3.60;99.90;;;;;;5103094;28;20223;-61
2020/12/25 12:40:50;;;;;;;1.73;1.63;;;3.70;99.90;;;;;;5103309;28;20206;-61
2020/12/25 12:43:17;;;;;;;2.83;1.95;;;3.50;99.90;;;;;;5103609;28;20203;-62
2020/12/25 12:45:44;;;;;;;1.35;1.25;;;3.50;99.90;;;;;;5103960;28;20207;-62
2020/12/25 12:48:10;;;;;;;1.63;1.52;;;3.50;99.90;;;;;;5103422;28;20241;-61
2020/12/25 12:50:37;;;;;;;1.50;1.40;;;3.60;99.90;;;;;;5104342;28;20398;-63
2020/12/25 12:53:04;;;;;;;2.58;1.63;;;3.60;99.90;;;;;;5103197;28;20205;-61
2020/12/25 12:55:30;;;;;;;2.35;2.15;;;3.50;99.90;;;;;;5103053;28;20207;-61
2020/12/25 12:57:57;;;;;;;1.63;1.52;;;3.70;99.90;;;;;;5102941;28;20227;-61
2020/12/25 13:00:23;;;;;;;2.17;1.95;;;3.60;99.90;;;;;;5103293;28;20522;-60
2020/12/25 13:02:50;;;;;;;2.85;2.15;;;3.70;99.90;;;;;;5102777;28;20418;-61